KEKO/EKO METAR and TAF weather

Enter ICAO airport designator
Station Type Date Time Source
KEKO METAR 2019/11/21 02:56 UTC NOAA

KEKO 210256Z AUTO 04015G23KT 10SM OVC070 04/M03 A2971 RMK AO2 SLP057 60000 T00391033 50004


Station Type Date Time Source
KEKO Decoded METAR 2019/11/21 02:56 UTC NOAA

ELKO REGIONAL AIRPORT, NV, United States (KEKO) 40-50N 115-47W 1547M
Nov 20, 2019 - 09:56 PM EST / 2019.11.21 0256 UTC
Wind: from the NE (040 degrees) at 17 MPH (15 KT) gusting to 26 MPH (23 KT):0
Visibility: 10 mile(s):0
Sky conditions: overcast
Temperature: 39.0 F (3.9 C)
Dew Point: 26.1 F (-3.3 C)
Relative Humidity: 59%
Pressure (altimeter): 29.71 in. Hg (1006 hPa)
Pressure tendency: 0.01 inches (0.4 hPa) higher than three hours ago
ob: KEKO 210256Z AUTO 04015G23KT 10SM OVC070 04/M03 A2971 RMK AO2 SLP057 60000 T00391033 50004
cycle: 3

Station Type Date Time Source
KEKO TAF 2019/11/21 03:42 UTC NOAA

TAF
AMD KEKO 210239Z 2103/2124 05012KT P6SM VCSH BKN020 OVC030
FM211000 05008KT P6SM SCT020 OVC040

Example: see airport list